Time;durP1;ratioP1;P1;durP2;ratioP2;P2;SDS_P1;SDS_P2;PMS_P1;PMS_P2;Temp;Humidity;BMP_temperature;BMP_pressure;BME280_temperature;BME280_humidity;BME280_pressure;Samples;Min_cycle;Max_cycle;Signal;HPM_P1;HPM_P2
2023/06/10 00:01:36;;;;;;;6.93;6.32;;;;;;;16.88;100.00;63745.09;5084909;28;20285;-75
2023/06/10 00:04:04;;;;;;;7.93;6.85;;;;;;;16.82;100.00;63739.41;5090305;28;20219;-74
2023/06/10 00:06:35;;;;;;;6.40;5.85;;;;;;;16.86;100.00;63745.59;5079782;28;20239;-77
2023/06/10 00:09:05;;;;;;;6.55;5.95;;;;;;;16.85;100.00;63739.41;5080448;28;20256;-77
2023/06/10 00:11:34;;;;;;;6.95;6.43;;;;;;;16.84;100.00;63746.09;5085294;28;20212;-76
2023/06/10 00:14:02;;;;;;;10.10;6.80;;;;;;;16.89;100.00;63746.16;5085221;28;20204;-75
2023/06/10 00:16:28;;;;;;;7.13;6.63;;;;;;;16.80;100.00;63732.16;5077861;28;20220;-75
2023/06/10 00:19:00;;;;;;;7.82;7.03;;;;;;;16.75;100.00;63726.44;5070628;28;20238;-75
2023/06/10 00:21:27;;;;;;;9.30;8.30;;;;;;;16.63;100.00;63719.09;5084362;28;20216;-76
2023/06/10 00:23:55;;;;;;;9.02;8.15;;;;;;;16.64;100.00;63718.09;5077577;28;20268;-75
2023/06/10 00:26:22;;;;;;;11.20;7.97;;;;;;;16.67;100.00;63721.19;5080732;28;20240;-75
2023/06/10 00:28:52;;;;;;;10.43;8.57;;;;;;;16.67;100.00;63721.19;5070133;28;20252;-76
2023/06/10 00:31:19;;;;;;;14.85;11.23;;;;;;;16.78;100.00;63737.28;5085169;28;20243;-76
2023/06/10 00:33:46;;;;;;;12.20;10.73;;;;;;;16.70;100.00;63724.34;5078672;28;20499;-75
2023/06/10 00:36:13;;;;;;;13.73;11.95;;;;;;;16.67;100.00;63725.84;5073825;28;20274;-77
2023/06/10 00:38:40;;;;;;;13.80;12.30;;;;;;;16.67;100.00;63718.63;5083859;28;20206;-75
2023/06/10 00:41:08;;;;;;;15.57;13.32;;;;;;;16.69;100.00;63720.19;5085457;28;20203;-77
2023/06/10 00:43:35;;;;;;;15.70;13.40;;;;;;;16.71;100.00;63725.38;5075028;28;20415;-76
2023/06/10 00:46:04;;;;;;;16.38;12.95;;;;;;;16.72;100.00;63726.41;5075041;28;20453;-76
2023/06/10 00:48:31;;;;;;;13.43;12.02;;;;;;;16.78;100.00;63732.13;5084004;28;20231;-76
2023/06/10 00:50:59;;;;;;;12.40;11.10;;;;;;;16.75;100.00;63732.09;5083589;28;20199;-76
2023/06/10 00:53:26;;;;;;;15.45;11.38;;;;;;;16.77;100.00;63731.63;5066056;28;20192;-75
2023/06/10 00:55:54;;;;;;;12.82;11.52;;;;;;;16.80;100.00;63737.31;5063640;28;20271;-73
2023/06/10 00:58:22;;;;;;;15.93;11.75;;;;;;;16.84;100.00;63743.53;5084206;28;20232;-73
2023/06/10 01:00:49;;;;;;;16.00;11.85;;;;;;;16.81;100.00;63733.19;5078115;28;20208;-77
2023/06/10 01:03:18;;;;;;;13.70;12.27;;;;;;;16.84;100.00;63743.53;5080054;28;20246;-74
2023/06/10 01:05:51;;;;;;;16.67;13.00;;;;;;;16.82;100.00;63736.28;5062890;28;20228;-75
2023/06/10 01:08:32;;;;;;;13.07;10.73;;;;;;;16.75;100.00;63734.69;5063552;28;20221;-74
2023/06/10 01:11:03;;;;;;;14.23;11.50;;;;;;;16.77;100.00;63734.19;5063651;28;20191;-75
2023/06/10 01:13:31;;;;;;;15.02;12.25;;;;;;;16.77;100.00;63731.09;5062940;28;20196;-75
2023/06/10 01:15:59;;;;;;;12.30;11.02;;;;;;;16.77;100.00;63736.25;5066261;28;20196;-75
2023/06/10 01:18:32;;;;;;;11.57;10.38;;;;;;;16.76;100.00;63733.13;5063222;28;20277;-73
2023/06/10 01:20:59;;;;;;;12.85;10.77;;;;;;;16.81;100.00;63735.78;5076942;28;20204;-76
2023/06/10 01:23:28;;;;;;;12.85;11.23;;;;;;;16.78;100.00;63735.22;5074447;28;20231;-75
2023/06/10 01:26:00;;;;;;;14.15;11.45;;;;;;;16.79;100.00;63735.75;5063089;28;20428;-76
2023/06/10 01:28:35;;;;;;;16.30;10.90;;;;;;;16.80;100.00;63734.75;5063781;28;20196;-75
2023/06/10 01:31:13;;;;;;;15.65;11.10;;;;;;;16.84;100.00;63744.03;5066271;28;20540;-76
2023/06/10 01:33:43;;;;;;;13.77;11.40;;;;;;;16.86;100.00;63745.59;5065655;28;20204;-75
2023/06/10 01:36:11;;;;;;;11.48;10.27;;;;;;;16.88;100.00;63739.97;5063358;28;20438;-74
2023/06/10 01:38:43;;;;;;;12.40;10.48;;;;;;;16.89;100.00;63746.16;5063237;28;20231;-73
2023/06/10 01:41:11;;;;;;;12.13;10.93;;;;;;;16.78;100.00;63734.69;5067622;28;20220;-75
2023/06/10 01:43:39;;;;;;;13.55;12.13;;;;;;;16.76;100.00;63732.63;5064660;28;20302;-74
2023/06/10 01:46:06;;;;;;;13.13;11.85;;;;;;;16.72;100.00;63723.81;5063508;28;20268;-75
2023/06/10 01:48:33;;;;;;;12.23;11.02;;;;;;;16.80;100.00;63731.63;5079703;28;21236;-75
2023/06/10 01:51:00;;;;;;;13.35;11.05;;;;;;;16.81;100.00;63735.78;5078672;28;20235;-76
2023/06/10 01:53:27;;;;;;;10.85;9.77;;;;;;;16.79;100.00;63731.13;5083150;28;20199;-75
2023/06/10 01:55:55;;;;;;;12.18;9.68;;;;;;;16.76;100.00;63733.13;5079967;28;20563;-74
2023/06/10 01:58:23;;;;;;;13.80;9.95;;;;;;;16.80;100.00;63734.22;5071599;28;20231;-74
2023/06/10 02:00:50;;;;;;;10.70;9.60;;;;;;;16.78;100.00;63737.28;5087857;28;20376;-75
2023/06/10 02:03:18;;;;;;;11.77;9.82;;;;;;;16.75;100.00;63734.69;5086776;28;20215;-75
2023/06/10 02:05:45;;;;;;;11.13;9.23;;;;;;;16.74;100.00;63728.47;5081500;28;20193;-74
2023/06/10 02:08:12;;;;;;;10.35;9.23;;;;;;;16.76;100.00;63730.03;5079461;28;20536;-76
2023/06/10 02:10:40;;;;;;;10.48;8.95;;;;;;;16.76;100.00;63727.47;5072959;28;20232;-76
2023/06/10 02:13:09;;;;;;;13.52;8.63;;;;;;;16.73;100.00;63729.50;5070058;28;20490;-75
2023/06/10 02:15:35;;;;;;;9.70;8.73;;;;;;;16.72;100.00;63731.03;5084790;28;20255;-73
2023/06/10 02:18:02;;;;;;;9.80;8.40;;;;;;;16.71;100.00;63724.84;5087902;28;20216;-74
2023/06/10 02:20:29;;;;;;;9.15;7.88;;;;;;;16.74;100.00;63731.06;5088444;28;20192;-75
2023/06/10 02:22:56;;;;;;;10.05;7.63;;;;;;;16.75;100.00;63732.09;5072574;28;20229;-75
2023/06/10 02:25:23;;;;;;;9.57;7.78;;;;;;;16.73;100.00;63724.88;5084631;28;20196;-77
2023/06/10 02:27:50;;;;;;;9.00;7.35;;;;;;;16.77;100.00;63731.09;5087144;28;20547;-75
2023/06/10 02:30:19;;;;;;;8.05;7.35;;;;;;;16.79;100.00;63733.69;5086351;28;20455;-77
2023/06/10 02:32:47;;;;;;;9.07;6.35;;;;;;;16.81;100.00;63737.81;5070436;28;20277;-74
2023/06/10 02:35:14;;;;;;;9.20;6.63;;;;;;;16.77;100.00;63736.75;5078532;28;20196;-75
2023/06/10 02:37:42;;;;;;;7.05;6.50;;;;;;;16.75;100.00;63729.00;5085500;28;20440;-73
2023/06/10 02:40:10;;;;;;;9.10;7.03;;;;;;;16.77;100.00;63733.66;5075682;28;20263;-76
2023/06/10 02:42:37;;;;;;;6.70;5.32;;;;;;;16.78;100.00;63729.56;5085334;28;20468;-75
2023/06/10 02:45:05;;;;;;;6.68;6.05;;;;;;;16.76;100.00;63727.47;5082472;28;20222;-76
2023/06/10 02:47:33;;;;;;;6.63;6.03;;;;;;;16.79;100.00;63735.75;5077413;28;20208;-76
2023/06/10 02:50:00;;;;;;;6.25;5.75;;;;;;;16.75;100.00;63731.59;5081995;28;20228;-75
2023/06/10 02:52:27;;;;;;;6.68;5.82;;;;;;;16.77;100.00;63731.09;5074363;28;20216;-75
2023/06/10 02:54:55;;;;;;;5.72;5.32;;;;;;;16.75;100.00;63726.44;5086319;28;20268;-76
2023/06/10 02:57:21;;;;;;;5.93;5.35;;;;;;;16.71;100.00;63727.41;5073365;28;20587;-76
2023/06/10 02:59:48;;;;;;;4.85;4.55;;;;;;;16.70;100.00;63726.91;5069483;28;20274;-75
2023/06/10 03:02:15;;;;;;;7.00;5.22;;;;;;;16.76;100.00;63730.03;5079926;28;20209;-77
2023/06/10 03:04:44;;;;;;;5.30;4.68;;;;;;;16.76;100.00;63735.19;5067728;28;20197;-76
2023/06/10 03:07:12;;;;;;;4.53;4.22;;;;;;;16.73;100.00;63729.50;5067484;28;20220;-77
2023/06/10 03:09:39;;;;;;;5.03;4.55;;;;;;;16.74;100.00;63733.13;5066007;28;20250;-76
2023/06/10 03:12:07;;;;;;;5.10;4.65;;;;;;;16.76;100.00;63728.00;5073847;28;20438;-75
2023/06/10 03:14:34;;;;;;;6.88;4.72;;;;;;;16.81;100.00;63740.91;5085557;28;20200;-75
2023/06/10 03:17:02;;;;;;;5.00;4.57;;;;;;;16.82;100.00;63738.88;5083533;28;20227;-74
2023/06/10 03:19:29;;;;;;;4.50;4.10;;;;;;;16.82;100.00;63738.88;5080291;28;20192;-76
2023/06/10 03:22:07;;;;;;;5.72;4.28;;;;;;;16.82;100.00;63736.81;5065432;28;20217;-75
2023/06/10 03:24:35;;;;;;;4.60;4.30;;;;;;;16.89;100.00;63743.59;5069121;28;20201;-76
2023/06/10 03:27:04;;;;;;;5.03;4.53;;;;;;;16.83;100.00;63740.44;5065880;28;20213;-76
2023/06/10 03:29:32;;;;;;;4.20;3.90;;;;;;;16.92;100.00;63751.84;5074428;28;20197;-75
2023/06/10 03:31:58;;;;;;;5.20;4.55;;;;;;;16.95;100.00;63752.91;5073699;28;20234;-75
2023/06/10 03:34:25;;;;;;;5.57;4.45;;;;;;;16.99;100.00;63753.97;5064297;28;20204;-76
2023/06/10 03:36:52;;;;;;;4.57;4.10;;;;;;;16.98;100.00;63758.59;5075672;28;20222;-75
2023/06/10 03:39:20;;;;;;;4.40;4.18;;;;;;;16.92;100.00;63747.22;5085402;28;20200;-74
2023/06/10 03:41:47;;;;;;;4.50;4.10;;;;;;;16.91;100.00;63745.66;5067304;28;20212;-75
2023/06/10 03:44:15;;;;;;;5.30;4.65;;;;;;;16.85;100.00;63745.09;5077251;28;20203;-75
2023/06/10 03:46:42;;;;;;;7.45;6.85;;;;;;;16.79;100.00;63730.59;5073264;28;20211;-76
2023/06/10 03:49:09;;;;;;;8.10;7.18;;;;;;;16.56;100.00;63712.34;5078922;28;20443;-74
2023/06/10 03:51:36;;;;;;;8.25;6.78;;;;;;;16.57;100.00;63705.66;5071593;28;20459;-75
2023/06/10 03:54:04;;;;;;;7.45;6.80;;;;;;;16.57;100.00;63708.22;5072027;28;20208;-76
2023/06/10 03:56:32;;;;;;;7.22;6.57;;;;;;;16.54;100.00;63707.16;5084705;28;20276;-76
2023/06/10 03:59:00;;;;;;;8.52;7.35;;;;;;;16.61;100.00;63722.69;5076826;28;20295;-77
2023/06/10 04:01:27;;;;;;;10.13;7.95;;;;;;;16.68;100.00;63727.41;5082832;28;20224;-76
2023/06/10 04:03:55;;;;;;;8.85;7.95;;;;;;;16.75;100.00;63732.09;5072054;28;20264;-77
2023/06/10 04:06:25;;;;;;;9.43;8.57;;;;;;;16.75;100.00;63731.59;5078729;28;20240;-76
2023/06/10 04:08:53;;;;;;;9.65;8.48;;;;;;;16.77;100.00;63728.53;5064450;28;20265;-78
2023/06/10 04:11:20;;;;;;;9.65;8.18;;;;;;;16.76;100.00;63730.03;5065480;28;20240;-77
2023/06/10 04:13:50;;;;;;;10.45;8.25;;;;;;;16.79;100.00;63733.19;5071638;28;20271;-77
2023/06/10 04:16:17;;;;;;;9.80;8.80;;;;;;;16.82;100.00;63741.97;5076020;28;20227;-77
2023/06/10 04:18:44;;;;;;;11.10;9.60;;;;;;;16.76;100.00;63735.19;5070901;28;20268;-76
2023/06/10 04:21:11;;;;;;;10.05;9.15;;;;;;;16.71;100.00;63732.56;5079211;28;20461;-76
2023/06/10 04:23:38;;;;;;;13.93;10.45;;;;;;;16.72;100.00;63723.31;5073327;28;20219;-74
2023/06/10 04:26:06;;;;;;;11.65;10.55;;;;;;;16.66;100.00;63722.75;5082226;28;20204;-75
2023/06/10 04:28:33;;;;;;;12.90;10.73;;;;;;;16.65;100.00;63721.69;5061976;28;20201;-75
2023/06/10 04:31:03;;;;;;;13.38;11.98;;;;;;;16.71;100.00;63725.38;5077890;28;20243;-75
2023/06/10 04:33:30;;;;;;;12.63;10.27;;;;;;;16.80;100.00;63732.16;5085638;28;20196;-74
2023/06/10 04:35:57;;;;;;;10.75;9.57;;;;;;;16.85;100.00;63739.41;5084655;28;20196;-75
2023/06/10 04:38:24;;;;;;;14.27;11.68;;;;;;;16.89;100.00;63746.69;5082287;28;20195;-76
2023/06/10 04:40:51;;;;;;;14.38;12.77;;;;;;;17.05;100.00;63765.38;5075262;28;20358;-75
2023/06/10 04:43:18;;;;;;;17.13;13.35;;;;;;;17.06;100.00;63761.81;5068318;28;20240;-73
2023/06/10 04:45:45;;;;;;;15.63;12.05;;;;;;;17.10;100.00;63768.53;5064082;28;20196;-76
2023/06/10 04:48:15;;;;;;;18.63;12.10;;;;;;;17.12;100.00;63768.03;5080210;28;20208;-76
2023/06/10 04:50:42;;;;;;;15.80;12.85;;;;;;;17.26;100.00;63784.66;5082057;28;20546;-78
2023/06/10 04:53:09;;;;;;;14.55;13.05;;;;;;;17.30;100.00;63786.78;5073256;28;20211;-76
2023/06/10 04:55:36;;;;;;;18.23;11.48;;;;;;;17.30;100.00;63791.94;5065174;28;20243;-75
2023/06/10 04:58:03;;;;;;;14.80;12.52;;;;;;;17.27;100.00;63783.66;5063525;28;20262;-76
2023/06/10 05:00:30;;;;;;;18.08;11.98;;;;;;;17.29;100.00;63787.78;5063644;28;20543;-77
2023/06/10 05:02:57;;;;;;;13.77;12.15;;;;;;;17.21;100.00;63779.97;5067997;28;20283;-76
2023/06/10 05:05:25;;;;;;;14.00;12.63;;;;;;;17.45;100.00;63807.00;5084421;28;20241;-78
2023/06/10 05:07:52;;;;;;;14.52;12.48;;;;;;;17.47;100.00;63806.03;5082965;28;20203;-75
2023/06/10 05:10:19;;;;;;;15.45;13.48;;;;;;;17.33;100.00;63792.47;5074654;28;20227;-76
2023/06/10 05:12:46;;;;;;;16.17;12.43;;;;;;;17.37;100.00;63793.00;5083334;28;20562;-75
2023/06/10 05:15:13;;;;;;;17.20;11.85;;;;;;;17.46;100.00;63800.38;5083838;28;20415;-76
2023/06/10 05:17:40;;;;;;;16.88;13.30;;;;;;;17.42;100.00;63800.78;5081986;28;20227;-75
2023/06/10 05:20:08;;;;;;;14.45;12.55;;;;;;;17.42;100.00;63798.22;5084930;28;20389;-77
2023/06/10 05:22:36;;;;;;;17.15;12.43;;;;;;;17.59;100.00;63816.47;5085530;28;20280;-77
2023/06/10 05:25:04;;;;;;;13.35;12.07;;;;;;;17.69;100.00;63823.78;5083269;28;20223;-77
2023/06/10 05:27:31;;;;;;;14.43;13.00;;;;;;;17.65;100.00;63820.16;5080953;28;20216;-74
2023/06/10 05:29:58;;;;;;;16.67;13.23;;;;;;;17.52;100.00;63808.66;5083762;28;20385;-77
2023/06/10 05:32:24;;;;;;;14.48;12.80;;;;;;;17.46;100.00;63804.97;5086438;28;20219;-76
2023/06/10 05:34:52;;;;;;;17.02;14.02;;;;;;;17.43;100.00;63802.34;5087445;28;20462;-77
2023/06/10 05:37:19;;;;;;;13.65;12.35;;;;;;;17.50;100.00;63807.09;5068393;28;20590;-75
2023/06/10 05:39:47;;;;;;;17.98;14.20;;;;;;;17.57;100.00;63819.03;5067566;28;20197;-76
2023/06/10 05:42:14;;;;;;;16.05;14.25;;;;;;;17.53;100.00;63812.28;5067480;28;20224;-74
2023/06/10 05:44:41;;;;;;;19.50;15.02;;;;;;;17.60;100.00;63814.91;5069748;28;20241;-76
2023/06/10 05:47:08;;;;;;;16.83;14.15;;;;;;;17.64;100.00;63816.00;5087756;28;20270;-77
2023/06/10 05:49:35;;;;;;;25.10;16.77;;;;;;;17.74;100.00;63834.66;5094039;28;20196;-77
2023/06/10 05:52:02;;;;;;;19.00;16.33;;;;;;;17.89;100.00;63845.13;5087005;28;20337;-76
2023/06/10 05:54:29;;;;;;;17.38;15.02;;;;;;;18.05;100.00;63869.03;5076387;28;20251;-74
2023/06/10 05:56:57;;;;;;;16.67;14.93;;;;;;;18.22;100.00;63881.56;5067723;28;20278;-76
2023/06/10 05:59:24;;;;;;;16.23;13.40;;;;;;;18.42;100.00;63899.84;5069363;28;20266;-76
2023/06/10 06:01:52;;;;;;;20.38;15.38;;;;;;;18.42;100.00;63902.94;5068534;28;20216;-75
2023/06/10 06:04:19;;;;;;;17.13;13.82;;;;;;;18.39;100.00;63901.84;5069780;28;20230;-73
2023/06/10 06:06:46;;;;;;;14.90;13.30;;;;;;;18.15;100.00;63874.78;5067668;28;20437;-76
2023/06/10 06:09:12;;;;;;;16.55;14.27;;;;;;;18.25;100.00;63884.69;5067263;28;20196;-76
2023/06/10 06:11:39;;;;;;;16.52;13.90;;;;;;;18.39;100.00;63902.38;5069259;28;20239;-75
2023/06/10 06:14:08;;;;;;;15.65;13.82;;;;;;;18.22;100.00;63887.22;5087675;28;20196;-76
2023/06/10 06:16:35;;;;;;;21.73;15.30;;;;;;;18.33;100.00;63890.97;5088575;28;20258;-75
2023/06/10 06:19:01;;;;;;;19.58;15.82;;;;;;;18.31;100.00;63890.94;5088278;28;20203;-75
2023/06/10 06:21:28;;;;;;;18.73;14.32;;;;;;;18.26;100.00;63883.69;5076975;28;20263;-75
2023/06/10 06:23:56;;;;;;;17.42;14.98;;;;;;;18.11;100.00;63870.63;5086497;28;20368;-74
2023/06/10 06:26:23;;;;;;;22.45;15.85;;;;;;;18.02;100.00;63863.31;5087275;28;20216;-74
2023/06/10 06:28:50;;;;;;;18.08;14.80;;;;;;;18.19;100.00;63878.44;5086287;28;20241;-76
2023/06/10 06:31:19;;;;;;;17.27;15.48;;;;;;;18.48;100.00;63903.53;5069223;28;20295;-76
2023/06/10 06:33:46;;;;;;;20.08;14.98;;;;;;;18.58;100.00;63916.00;5068301;28;20193;-75
2023/06/10 06:36:13;;;;;;;17.40;14.98;;;;;;;18.63;100.00;63926.38;5067803;28;20203;-77
2023/06/10 06:38:40;;;;;;;17.27;14.57;;;;;;;18.79;100.00;63948.22;5065112;28;20264;-76
2023/06/10 06:41:07;;;;;;;19.48;13.52;;;;;;;18.73;100.00;63939.38;5066378;28;20200;-76
2023/06/10 06:43:34;;;;;;;20.75;14.63;;;;;;;18.47;100.00;63912.78;5065481;28;20387;-76
2023/06/10 06:46:01;;;;;;;15.13;13.45;;;;;;;18.76;100.00;63937.34;5066918;28;20197;-76
2023/06/10 06:48:29;;;;;;;18.52;12.77;;;;;;;19.11;100.00;63979.50;5075090;28;20260;-74
2023/06/10 06:50:58;;;;;;;13.60;11.80;;;;;;;19.37;100.00;64001.47;5067187;28;20231;-76
2023/06/10 06:53:25;;;;;;;17.77;11.93;;;;;;;19.55;100.00;64014.56;5066865;28;20419;-76
2023/06/10 06:55:53;;;;;;;13.57;10.82;;;;;;;19.69;100.00;64034.31;5066373;28;20201;-77
2023/06/10 06:58:20;;;;;;;13.30;11.90;;;;;;;19.62;100.00;64031.66;5080111;28;20563;-78
2023/06/10 07:00:46;;;;;;;13.90;11.65;;;;;;;19.72;100.00;64042.09;5086611;28;20231;-74
2023/06/10 07:03:13;;;;;;;11.75;10.13;;;;;;;19.81;100.00;64054.59;5087885;28;20212;-76
2023/06/10 07:05:42;;;;;;;11.65;10.45;;;;;;;19.72;100.00;64040.03;5083236;28;20218;-76
2023/06/10 07:08:09;;;;;;;14.25;11.63;;;;;;;20.08;100.00;64075.00;5067029;28;20444;-75
2023/06/10 07:10:36;;;;;;;10.70;9.65;;;;;;;20.07;100.00;64076.53;5065579;28;20219;-76
2023/06/10 07:13:03;;;;;;;10.63;9.20;;;;;;;20.21;100.00;64090.66;5065972;28;20267;-75
2023/06/10 07:15:30;;;;;;;14.85;8.13;;;;;;;20.51;100.00;64119.91;5077792;28;20206;-77
2023/06/10 07:17:57;;;;;;;8.70;7.70;;;;;;;20.79;100.00;64145.50;5086553;28;20271;-75
2023/06/10 07:20:24;;;;;;;10.00;8.50;;;;;;;20.78;100.00;64150.16;5088038;28;20196;-75
2023/06/10 07:22:53;;;;;;;9.82;8.02;;;;;;;21.04;100.00;64174.19;5086583;28;20208;-75
2023/06/10 07:25:20;;;;;;;8.98;8.10;;;;;;;20.69;100.00;64138.19;5069843;28;20223;-77
2023/06/10 07:27:47;;;;;;;8.43;7.25;;;;;;;20.48;100.00;64118.84;5065230;28;20217;-75
2023/06/10 07:30:14;;;;;;;10.18;8.35;;;;;;;20.62;100.00;64130.88;5065671;28;20272;-77
2023/06/10 07:32:41;;;;;;;11.43;8.27;;;;;;;20.97;100.00;64175.16;5064621;28;20244;-77
2023/06/10 07:35:11;;;;;;;9.57;8.02;;;;;;;21.20;100.00;64185.72;5066314;28;20201;-76
2023/06/10 07:37:39;;;;;;;12.60;7.93;;;;;;;21.03;100.00;64173.16;5069478;28;20209;-74
2023/06/10 07:40:08;;;;;;;8.55;7.68;;;;;;;21.28;100.00;64204.44;5068686;28;20193;-75
2023/06/10 07:42:36;;;;;;;7.15;6.45;;;;;;;21.64;100.00;64239.47;5064329;28;20225;-76
2023/06/10 07:45:04;;;;;;;7.80;7.10;;;;;;;21.59;100.00;64237.34;5065316;28;20223;-76
2023/06/10 07:47:35;;;;;;;9.05;7.53;;;;;;;21.21;100.00;64192.47;5074599;28;20216;-76
2023/06/10 07:50:03;;;;;;;7.93;7.05;;;;;;;21.47;100.00;64219.63;5085561;28;20257;-77
2023/06/10 07:52:31;;;;;;;14.38;7.70;;;;;;;21.40;100.00;64214.91;5071034;28;20271;-75
2023/06/10 07:54:57;;;;;;;8.23;7.18;;;;;;;21.30;100.00;64204.47;5066877;28;20193;-76
2023/06/10 07:57:26;;;;;;;9.20;6.75;;;;;;;20.70;100.00;64141.81;5065612;28;20262;-77
2023/06/10 07:59:54;;;;;;;7.22;6.22;;;;;;;20.72;100.00;64146.47;5065471;28;20220;-74
2023/06/10 08:02:21;;;;;;;6.75;6.18;;;;;;;20.99;100.00;64172.09;5065213;28;20248;-76
2023/06/10 08:04:48;;;;;;;6.47;5.88;;;;;;;20.98;100.00;64170.50;5065561;28;20205;-76
2023/06/10 08:07:16;;;;;;;7.50;4.90;;;;;;;20.76;100.00;64150.66;5065443;28;20263;-76
2023/06/10 08:09:43;;;;;;;6.72;5.32;;;;;;;20.76;100.00;64148.06;5072471;28;20263;-75
2023/06/10 08:12:10;;;;;;;8.23;5.78;;;;;;;20.74;99.65;64146.00;5085112;28;20231;-76
2023/06/10 08:14:38;;;;;;;5.82;5.40;;;;;;;20.59;100.00;64132.91;5085562;28;20227;-76
2023/06/10 08:17:06;;;;;;;5.45;4.93;;;;;;;20.71;98.00;64140.25;5085677;28;20257;-75
2023/06/10 08:19:33;;;;;;;6.00;5.50;;;;;;;20.66;99.92;64140.22;5082988;28;20219;-76
2023/06/10 08:22:00;;;;;;;6.30;4.57;;;;;;;20.86;98.70;64153.34;5086738;28;20254;-76
2023/06/10 08:24:27;;;;;;;5.97;4.20;;;;;;;21.00;93.76;64173.13;5086875;28;20270;-78
2023/06/10 08:26:55;;;;;;;6.53;4.32;;;;;;;21.18;92.54;64194.53;5087468;28;20477;-77
2023/06/10 08:29:22;;;;;;;6.68;4.15;;;;;;;21.46;87.35;64220.66;5067733;28;20466;-75
2023/06/10 08:31:50;;;;;;;4.57;4.03;;;;;;;21.35;82.49;64209.69;5065275;28;20239;-76
2023/06/10 08:34:17;;;;;;;4.20;3.83;;;;;;;21.34;85.28;64208.13;5064614;28;20201;-75
2023/06/10 08:36:44;;;;;;;5.28;4.03;;;;;;;21.33;82.32;64205.00;5069196;28;20284;-76
2023/06/10 08:39:11;;;;;;;4.97;3.92;;;;;;;21.14;82.83;64182.06;5086537;28;20203;-75
2023/06/10 08:41:43;;;;;;;4.40;4.07;;;;;;;21.08;82.73;64181.50;5083949;28;20222;-77
2023/06/10 08:44:18;;;;;;;4.07;3.78;;;;;;;21.11;84.79;64187.22;5087031;28;20234;-76
2023/06/10 08:46:46;;;;;;;4.28;3.95;;;;;;;21.27;83.44;64200.81;5074705;28;20375;-75
2023/06/10 08:49:21;;;;;;;4.82;4.32;;;;;;;21.37;84.23;64211.78;5085152;28;20196;-75
2023/06/10 08:51:51;;;;;;;3.53;3.22;;;;;;;21.54;82.69;64229.00;5084658;28;20223;-76
2023/06/10 08:54:22;;;;;;;4.05;3.03;;;;;;;21.64;70.64;64239.97;5083302;28;20213;-76
2023/06/10 08:56:52;;;;;;;4.07;3.78;;;;;;;21.77;74.87;64253.59;5064451;28;20255;-76
2023/06/10 08:59:20;;;;;;;3.55;3.35;;;;;;;21.93;72.78;64271.84;5064903;28;20204;-76
2023/06/10 09:01:48;;;;;;;3.17;2.97;;;;;;;22.12;71.59;64286.53;5066805;28;20224;-76
2023/06/10 09:04:17;;;;;;;3.78;3.58;;;;;;;22.20;71.08;64298.00;5066750;28;20276;-77
2023/06/10 09:06:46;;;;;;;5.97;2.92;;;;;;;22.28;69.43;64303.78;5064094;28;20217;-78
2023/06/10 09:09:15;;;;;;;6.68;3.05;;;;;;;22.29;71.74;64312.09;5066639;28;20204;-77
2023/06/10 09:11:43;;;;;;;3.95;3.42;;;;;;;22.40;69.38;64318.91;5063844;28;20529;-76
2023/06/10 09:14:11;;;;;;;4.03;3.72;;;;;;;22.41;71.30;64319.97;5079454;28;20261;-76
2023/06/10 09:16:40;;;;;;;3.15;2.95;;;;;;;22.61;70.75;64343.47;5088774;28;20220;-76
2023/06/10 09:19:08;;;;;;;3.17;2.97;;;;;;;22.78;67.92;64360.72;5085735;28;20245;-77
2023/06/10 09:21:38;;;;;;;3.67;3.38;;;;;;;22.87;65.47;64368.06;5082691;28;20224;-76
2023/06/10 09:24:06;;;;;;;5.35;3.60;;;;;;;23.04;60.48;64385.31;5088041;28;20200;-76
2023/06/10 09:26:33;;;;;;;2.95;2.83;;;;;;;22.97;63.05;64383.19;5084304;28;20211;-77
2023/06/10 09:29:04;;;;;;;2.78;2.67;;;;;;;;;;5084985;28;20207;-77
2023/06/10 09:31:32;;;;;;;3.80;3.40;;;;;;;22.97;57.64;64378.00;5082619;28;20258;-78
2023/06/10 09:34:06;;;;;;;3.67;3.38;;;;;;;22.88;60.07;64366.50;5085521;28;20274;-75
2023/06/10 09:36:34;;;;;;;3.53;3.33;;;;;;;23.04;62.70;64385.31;5087269;28;20216;-76
2023/06/10 09:39:02;;;;;;;3.45;3.08;;;;;;;23.27;57.78;64411.47;5085793;28;20547;-75
2023/06/10 09:41:36;;;;;;;3.65;3.35;;;;;;;23.45;59.42;64430.81;5063915;28;20235;-76
2023/06/10 09:44:10;;;;;;;3.20;3.00;;;;;;;23.26;60.63;64410.94;5062995;28;20466;-75
2023/06/10 09:46:37;;;;;;;4.15;3.50;;;;;;;23.45;58.00;64428.22;5066687;28;20244;-76
2023/06/10 09:49:03;;;;;;;4.13;3.83;;;;;;;23.71;56.47;64455.44;5078071;28;20211;-76
2023/06/10 09:51:30;;;;;;;2.90;2.70;;;;;;;23.83;56.32;64470.59;5066518;28;20217;-77
2023/06/10 09:53:58;;;;;;;2.95;2.72;;;;;;;23.47;53.13;64432.41;5066603;28;20275;-76
2023/06/10 09:56:36;;;;;;;2.85;2.58;;;;;;;23.46;51.91;64426.69;5063898;28;20381;-74
2023/06/10 09:59:06;;;;;;;2.53;2.42;;;;;;;23.51;51.28;64439.72;5062546;28;20208;-76
2023/06/10 10:01:33;;;;;;;4.18;2.35;;;;;;;23.80;53.78;64466.94;5063974;28;20223;-78
2023/06/10 10:04:01;;;;;;;2.70;2.60;;;;;;;23.95;52.46;64482.63;5064959;28;20264;-75
2023/06/10 10:06:29;;;;;;;3.05;2.83;;;;;;;23.93;50.32;64478.47;5064006;28;20231;-76
2023/06/10 10:08:56;;;;;;;3.08;2.97;;;;;;;23.81;50.01;64463.31;5066876;28;20381;-78
2023/06/10 10:11:25;;;;;;;5.60;3.40;;;;;;;24.02;49.59;64482.69;5064599;28;20217;-76
2023/06/10 10:13:54;;;;;;;4.32;3.55;;;;;;;24.30;50.19;64513.56;5064502;28;20196;-77
2023/06/10 10:16:23;;;;;;;3.53;2.63;;;;;;;24.57;49.36;64541.81;5063674;28;20263;-78
2023/06/10 10:18:55;;;;;;;3.03;2.83;;;;;;;24.77;48.84;64562.78;5065378;28;20219;-76
2023/06/10 10:21:24;;;;;;;2.90;2.70;;;;;;;24.82;48.31;64565.94;5088176;28;20235;-77
2023/06/10 10:23:58;;;;;;;3.38;3.08;;;;;;;25.01;51.99;64587.91;5092202;28;20208;-77
2023/06/10 10:26:27;;;;;;;4.55;2.97;;;;;;;25.10;49.30;64597.88;5071084;28;20221;-77
2023/06/10 10:29:06;;;;;;;2.47;2.38;;;;;;;25.18;48.88;64608.31;5067141;28;20227;-76
2023/06/10 10:31:36;;;;;;;3.08;2.97;;;;;;;25.16;50.53;64605.72;5066959;28;20393;-78
2023/06/10 10:34:08;;;;;;;3.40;3.20;;;;;;;25.13;50.22;64605.69;5066346;28;20219;-76
2023/06/10 10:36:36;;;;;;;3.60;2.90;;;;;;;25.38;48.46;64629.31;5067436;28;20555;-77
2023/06/10 10:39:05;;;;;;;3.85;3.40;;;;;;;25.55;46.61;64647.13;5068656;28;20204;-79
2023/06/10 10:41:33;;;;;;;2.92;2.83;;;;;;;25.58;45.65;64652.88;5070073;28;20536;-78
2023/06/10 10:44:05;;;;;;;3.38;2.78;;;;;;;25.98;44.31;64694.81;5067282;28;20201;-76
2023/06/10 10:46:43;;;;;;;3.13;2.92;;;;;;;26.06;47.68;64703.19;5068251;28;20216;-77
2023/06/10 10:49:11;;;;;;;3.10;2.83;;;;;;;26.28;47.96;64725.22;5089099;28;20207;-77
2023/06/10 10:51:38;;;;;;;3.17;2.78;;;;;;;26.03;47.65;64702.66;5087293;28;20227;-76
2023/06/10 10:54:12;;;;;;;4.50;3.35;;;;;;;25.79;48.19;64677.50;5067852;28;20213;-78
2023/06/10 10:56:39;;;;;;;3.55;3.05;;;;;;;25.95;45.76;64683.81;5068235;28;20216;-77
2023/06/10 10:59:09;;;;;;;4.60;3.15;;;;;;;26.23;47.29;64712.66;5072264;28;20196;-79
2023/06/10 11:01:45;;;;;;;3.63;3.33;;;;;;;25.92;48.01;64685.88;5067814;28;20213;-78
2023/06/10 11:04:12;;;;;;;3.35;3.15;;;;;;;25.53;48.20;64642.41;5068515;28;20201;-77
2023/06/10 11:06:39;;;;;;;3.00;2.80;;;;;;;26.00;46.99;64691.16;5067707;28;20216;-76
2023/06/10 11:09:28;;;;;;;4.03;3.67;;;;;;;26.08;45.28;64705.28;5067053;28;20199;-77
2023/06/10 11:11:57;;;;;;;3.03;2.50;;;;;;;26.40;43.77;64735.19;5084824;28;20219;-76
2023/06/10 11:14:29;;;;;;;2.63;2.53;;;;;;;26.41;42.88;64738.84;5072086;28;20219;-77
2023/06/10 11:16:59;;;;;;;3.20;3.00;;;;;;;26.43;42.72;64740.94;5068379;28;20236;-76
2023/06/10 11:19:36;;;;;;;2.90;2.70;;;;;;;26.61;44.17;64759.81;5068382;28;20473;-77
2023/06/10 11:22:04;;;;;;;2.70;2.60;;;;;;;27.18;46.97;64814.91;5068519;28;20216;-78
2023/06/10 11:24:31;;;;;;;3.20;2.83;;;;;;;27.35;45.91;64834.88;5067719;28;20449;-78
2023/06/10 11:27:17;;;;;;;3.22;3.03;;;;;;;27.22;44.26;64821.72;5067430;28;20208;-76